Weather at North Chatham Heliport

Public forecast

Using degrees Fahrenheit for public forecast. Weather courtesy of forecast.io.

Closest aviation weather report (METAR) to North Chatham Heliport

Closest report is Chatham Municipal Airport, 1.9 nm (3.5 km) SSW. Retrieved 2020/09/26 10:11 UTC (32 minutes ago):

KCQX 261011Z AUTO VRB03KT 9SM OVC005 17/15 A3016 RMK AO2 T01670150

Closest aviation forecast (TAF) to North Chatham Heliport

Closest forecast is Barnstable Municipal Boardman Polando Field, 14.4 nm (26.6 km) W. Retrieved 2020/09/26 06:40 UTC (4 hours ago):

TAF KHYA 260538Z 2606/2706 21006KT P6SM OVC007 FM260700 21006KT 2SM BR BKN008 FM261000 20005KT 1/2SM FG BKN008 FM261300 19006KT P6SM BKN003 FM261400 19007KT P6SM BKN200